sensor_id;sensor_type;location;lat;lon;timestamp;pressure;altitude;pressure_sealevel;temperature;humidity
80988;BME280;70452;39.386;-3.210;2023-08-21T00:01:28;94590.56;;;28.96;45.60
80988;BME280;70452;39.386;-3.210;2023-08-21T00:03:53;94586.09;;;28.88;46.16
80988;BME280;70452;39.386;-3.210;2023-08-21T00:06:24;94582.53;;;28.91;46.36
80988;BME280;70452;39.386;-3.210;2023-08-21T00:08:50;94589.66;;;28.81;46.71
80988;BME280;70452;39.386;-3.210;2023-08-21T00:11:15;94587.31;;;28.87;46.36
80988;BME280;70452;39.386;-3.210;2023-08-21T00:13:41;94585.16;;;28.66;47.41
80988;BME280;70452;39.386;-3.210;2023-08-21T00:16:10;94577.13;;;28.60;47.58
80988;BME280;70452;39.386;-3.210;2023-08-21T00:18:36;94590.75;;;28.62;47.65
80988;BME280;70452;39.386;-3.210;2023-08-21T00:21:01;94582.31;;;28.58;47.93
80988;BME280;70452;39.386;-3.210;2023-08-21T00:23:29;94588.31;;;28.57;48.03
80988;BME280;70452;39.386;-3.210;2023-08-21T00:25:57;94586.34;;;28.57;48.10
80988;BME280;70452;39.386;-3.210;2023-08-21T00:28:24;94575.84;;;28.51;48.22
80988;BME280;70452;39.386;-3.210;2023-08-21T00:30:49;94586.22;;;28.50;48.37
80988;BME280;70452;39.386;-3.210;2023-08-21T00:33:16;94584.13;;;28.36;48.69
80988;BME280;70452;39.386;-3.210;2023-08-21T00:35:42;94579.31;;;28.33;48.53
80988;BME280;70452;39.386;-3.210;2023-08-21T00:38:08;94573.25;;;28.28;48.29
80988;BME280;70452;39.386;-3.210;2023-08-21T00:40:33;94588.31;;;28.09;47.98
80988;BME280;70452;39.386;-3.210;2023-08-21T00:42:59;94589.03;;;28.02;47.57
80988;BME280;70452;39.386;-3.210;2023-08-21T00:45:26;94582.97;;;27.93;47.30
80988;BME280;70452;39.386;-3.210;2023-08-21T00:47:52;94578.16;;;27.93;46.98
80988;BME280;70452;39.386;-3.210;2023-08-21T00:50:18;94591.00;;;27.94;46.52
80988;BME280;70452;39.386;-3.210;2023-08-21T00:52:45;94584.78;;;27.78;46.58
80988;BME280;70452;39.386;-3.210;2023-08-21T00:55:13;94589.22;;;27.79;46.77
80988;BME280;70452;39.386;-3.210;2023-08-21T00:57:40;94584.72;;;27.71;46.77
80988;BME280;70452;39.386;-3.210;2023-08-21T01:00:07;94577.91;;;27.68;46.75
80988;BME280;70452;39.386;-3.210;2023-08-21T01:02:35;94578.97;;;27.56;46.90
80988;BME280;70452;39.386;-3.210;2023-08-21T01:05:01;94594.91;;;27.52;46.78
80988;BME280;70452;39.386;-3.210;2023-08-21T01:07:26;94576.25;;;27.63;46.03
80988;BME280;70452;39.386;-3.210;2023-08-21T01:10:03;94595.34;;;27.54;46.10
80988;BME280;70452;39.386;-3.210;2023-08-21T01:15:15;94587.91;;;27.35;45.64
80988;BME280;70452;39.386;-3.210;2023-08-21T01:17:42;94592.72;;;27.35;45.75
80988;BME280;70452;39.386;-3.210;2023-08-21T01:20:09;94590.81;;;27.42;45.32
80988;BME280;70452;39.386;-3.210;2023-08-21T01:22:36;94604.19;;;27.26;45.65
80988;BME280;70452;39.386;-3.210;2023-08-21T01:25:03;94593.28;;;27.17;45.94
80988;BME280;70452;39.386;-3.210;2023-08-21T01:27:28;94594.69;;;27.04;46.23
80988;BME280;70452;39.386;-3.210;2023-08-21T01:29:54;94599.53;;;27.07;46.02
80988;BME280;70452;39.386;-3.210;2023-08-21T01:32:21;94603.00;;;26.97;45.94
80988;BME280;70452;39.386;-3.210;2023-08-21T01:34:50;94593.72;;;26.89;46.09
80988;BME280;70452;39.386;-3.210;2023-08-21T01:37:17;94599.41;;;26.96;45.82
80988;BME280;70452;39.386;-3.210;2023-08-21T01:39:43;94587.97;;;26.78;46.04
80988;BME280;70452;39.386;-3.210;2023-08-21T01:42:09;94604.38;;;26.80;45.70
80988;BME280;70452;39.386;-3.210;2023-08-21T01:44:34;94593.84;;;26.69;46.04
80988;BME280;70452;39.386;-3.210;2023-08-21T01:47:00;94593.00;;;26.65;45.85
80988;BME280;70452;39.386;-3.210;2023-08-21T01:49:27;94589.78;;;26.63;45.69
80988;BME280;70452;39.386;-3.210;2023-08-21T01:51:53;94590.28;;;26.72;45.62
80988;BME280;70452;39.386;-3.210;2023-08-21T01:54:18;94587.78;;;26.64;45.96
80988;BME280;70452;39.386;-3.210;2023-08-21T01:56:44;94594.81;;;26.57;46.18
80988;BME280;70452;39.386;-3.210;2023-08-21T01:59:09;94588.75;;;26.52;46.01
80988;BME280;70452;39.386;-3.210;2023-08-21T02:01:35;94585.97;;;26.52;45.86
80988;BME280;70452;39.386;-3.210;2023-08-21T02:04:00;94587.22;;;26.54;45.82
80988;BME280;70452;39.386;-3.210;2023-08-21T02:06:26;94584.81;;;26.53;45.64
80988;BME280;70452;39.386;-3.210;2023-08-21T02:08:51;94587.97;;;26.51;45.80
80988;BME280;70452;39.386;-3.210;2023-08-21T02:11:17;94587.03;;;26.44;45.59
80988;BME280;70452;39.386;-3.210;2023-08-21T02:13:43;94588.94;;;26.36;45.72
80988;BME280;70452;39.386;-3.210;2023-08-21T02:16:08;94585.81;;;26.41;45.46
80988;BME280;70452;39.386;-3.210;2023-08-21T02:18:34;94580.81;;;26.27;45.67
80988;BME280;70452;39.386;-3.210;2023-08-21T02:21:02;94587.56;;;26.26;45.57
80988;BME280;70452;39.386;-3.210;2023-08-21T02:23:28;94585.09;;;26.21;45.47
80988;BME280;70452;39.386;-3.210;2023-08-21T02:25:54;94591.00;;;26.16;45.46
80988;BME280;70452;39.386;-3.210;2023-08-21T02:28:20;94578.34;;;26.22;45.05
80988;BME280;70452;39.386;-3.210;2023-08-21T02:30:45;94583.69;;;26.08;44.95
80988;BME280;70452;39.386;-3.210;2023-08-21T02:33:11;94587.59;;;26.03;44.47
80988;BME280;70452;39.386;-3.210;2023-08-21T02:35:37;94585.34;;;26.12;44.12
80988;BME280;70452;39.386;-3.210;2023-08-21T02:38:02;94595.94;;;25.99;44.03
80988;BME280;70452;39.386;-3.210;2023-08-21T02:40:28;94594.78;;;26.04;43.66
80988;BME280;70452;39.386;-3.210;2023-08-21T02:42:53;94589.44;;;25.95;43.79
80988;BME280;70452;39.386;-3.210;2023-08-21T02:45:19;94591.00;;;25.93;43.65
80988;BME280;70452;39.386;-3.210;2023-08-21T02:47:45;94596.66;;;25.96;43.39
80988;BME280;70452;39.386;-3.210;2023-08-21T02:50:11;94588.75;;;25.79;43.89
80988;BME280;70452;39.386;-3.210;2023-08-21T02:52:37;94588.09;;;25.86;43.64
80988;BME280;70452;39.386;-3.210;2023-08-21T02:55:03;94579.44;;;25.71;43.78
80988;BME280;70452;39.386;-3.210;2023-08-21T02:57:29;94586.22;;;25.70;43.74
80988;BME280;70452;39.386;-3.210;2023-08-21T02:59:55;94589.53;;;25.56;44.15
80988;BME280;70452;39.386;-3.210;2023-08-21T03:02:21;94579.25;;;25.60;43.69
80988;BME280;70452;39.386;-3.210;2023-08-21T03:04:47;94588.66;;;25.52;43.81
80988;BME280;70452;39.386;-3.210;2023-08-21T03:07:13;94585.38;;;25.47;43.52
80988;BME280;70452;39.386;-3.210;2023-08-21T03:09:39;94578.59;;;25.48;43.36
80988;BME280;70452;39.386;-3.210;2023-08-21T03:12:06;94575.81;;;25.48;42.99
80988;BME280;70452;39.386;-3.210;2023-08-21T03:14:32;94585.44;;;25.50;42.55
80988;BME280;70452;39.386;-3.210;2023-08-21T03:16:58;94581.56;;;25.35;42.92
80988;BME280;70452;39.386;-3.210;2023-08-21T03:19:23;94583.03;;;25.29;42.96
80988;BME280;70452;39.386;-3.210;2023-08-21T03:21:48;94569.16;;;25.33;42.25
80988;BME280;70452;39.386;-3.210;2023-08-21T03:24:14;94572.69;;;25.30;42.44
80988;BME280;70452;39.386;-3.210;2023-08-21T03:26:39;94572.47;;;25.19;42.41
80988;BME280;70452;39.386;-3.210;2023-08-21T03:29:05;94579.00;;;25.26;41.83
80988;BME280;70452;39.386;-3.210;2023-08-21T03:31:31;94567.75;;;25.23;41.64
80988;BME280;70452;39.386;-3.210;2023-08-21T03:33:57;94572.75;;;25.14;41.65
80988;BME280;70452;39.386;-3.210;2023-08-21T03:36:23;94571.84;;;25.09;41.26
80988;BME280;70452;39.386;-3.210;2023-08-21T03:39:01;94566.16;;;25.02;41.31
80988;BME280;70452;39.386;-3.210;2023-08-21T03:41:27;94567.41;;;25.05;41.13
80988;BME280;70452;39.386;-3.210;2023-08-21T03:43:53;94572.28;;;25.12;40.40
80988;BME280;70452;39.386;-3.210;2023-08-21T03:46:19;94572.16;;;25.04;40.12
80988;BME280;70452;39.386;-3.210;2023-08-21T03:48:44;94570.03;;;24.98;39.83
80988;BME280;70452;39.386;-3.210;2023-08-21T03:51:10;94582.00;;;24.98;39.70
80988;BME280;70452;39.386;-3.210;2023-08-21T03:53:36;94565.56;;;24.93;39.32
80988;BME280;70452;39.386;-3.210;2023-08-21T03:56:01;94577.03;;;24.72;39.50
80988;BME280;70452;39.386;-3.210;2023-08-21T03:58:27;94577.94;;;24.76;39.68
80988;BME280;70452;39.386;-3.210;2023-08-21T04:00:55;94579.66;;;24.81;39.10
80988;BME280;70452;39.386;-3.210;2023-08-21T04:03:21;94578.22;;;24.71;39.29
80988;BME280;70452;39.386;-3.210;2023-08-21T04:05:47;94579.81;;;24.72;39.15
80988;BME280;70452;39.386;-3.210;2023-08-21T04:08:13;94578.66;;;24.73;38.85
80988;BME280;70452;39.386;-3.210;2023-08-21T04:10:40;94585.25;;;24.65;38.40
80988;BME280;70452;39.386;-3.210;2023-08-21T04:13:07;94594.88;;;24.67;38.59
80988;BME280;70452;39.386;-3.210;2023-08-21T04:15:33;94588.88;;;24.65;38.06
80988;BME280;70452;39.386;-3.210;2023-08-21T04:18:00;94585.97;;;24.62;37.93
80988;BME280;70452;39.386;-3.210;2023-08-21T04:20:26;94591.19;;;24.63;37.62
80988;BME280;70452;39.386;-3.210;2023-08-21T04:22:51;94595.50;;;24.61;37.52
80988;BME280;70452;39.386;-3.210;2023-08-21T04:25:17;94580.03;;;24.63;37.73
80988;BME280;70452;39.386;-3.210;2023-08-21T04:27:42;94592.09;;;24.51;37.59
80988;BME280;70452;39.386;-3.210;2023-08-21T04:30:09;94600.53;;;24.39;37.82
80988;BME280;70452;39.386;-3.210;2023-08-21T04:32:35;94598.03;;;24.50;37.48
80988;BME280;70452;39.386;-3.210;2023-08-21T04:35:01;94592.28;;;24.43;37.28
80988;BME280;70452;39.386;-3.210;2023-08-21T04:37:26;94595.34;;;24.38;37.39
80988;BME280;70452;39.386;-3.210;2023-08-21T04:39:55;94593.56;;;24.29;37.33
80988;BME280;70452;39.386;-3.210;2023-08-21T04:42:22;94608.47;;;24.37;37.09
80988;BME280;70452;39.386;-3.210;2023-08-21T04:44:48;94610.44;;;24.37;37.17
80988;BME280;70452;39.386;-3.210;2023-08-21T04:47:25;94585.66;;;24.31;36.96
80988;BME280;70452;39.386;-3.210;2023-08-21T04:49:54;94595.63;;;24.32;37.12
80988;BME280;70452;39.386;-3.210;2023-08-21T04:52:21;94603.81;;;24.25;37.16
80988;BME280;70452;39.386;-3.210;2023-08-21T04:54:49;94604.34;;;24.31;37.19
80988;BME280;70452;39.386;-3.210;2023-08-21T04:57:15;94609.44;;;24.29;37.06
80988;BME280;70452;39.386;-3.210;2023-08-21T04:59:41;94602.22;;;24.24;37.41
80988;BME280;70452;39.386;-3.210;2023-08-21T05:02:07;94604.44;;;24.19;37.46
80988;BME280;70452;39.386;-3.210;2023-08-21T05:04:33;94603.38;;;24.23;37.42
80988;BME280;70452;39.386;-3.210;2023-08-21T05:07:00;94606.78;;;24.17;38.02
80988;BME280;70452;39.386;-3.210;2023-08-21T05:09:25;94607.41;;;24.10;38.00
80988;BME280;70452;39.386;-3.210;2023-08-21T05:11:51;94609.03;;;24.11;38.03
80988;BME280;70452;39.386;-3.210;2023-08-21T05:14:16;94605.38;;;24.07;38.27
80988;BME280;70452;39.386;-3.210;2023-08-21T05:16:45;94601.31;;;24.04;38.41
80988;BME280;70452;39.386;-3.210;2023-08-21T05:19:10;94614.69;;;23.99;38.80
80988;BME280;70452;39.386;-3.210;2023-08-21T05:21:36;94607.94;;;24.00;38.81
80988;BME280;70452;39.386;-3.210;2023-08-21T05:24:01;94609.03;;;23.95;39.26
80988;BME280;70452;39.386;-3.210;2023-08-21T05:26:27;94609.41;;;23.93;39.43
80988;BME280;70452;39.386;-3.210;2023-08-21T05:28:54;94603.47;;;23.95;39.91
80988;BME280;70452;39.386;-3.210;2023-08-21T05:31:19;94612.81;;;23.87;40.30
80988;BME280;70452;39.386;-3.210;2023-08-21T05:33:45;94621.16;;;23.87;40.56
80988;BME280;70452;39.386;-3.210;2023-08-21T05:36:11;94608.97;;;23.91;40.56
80988;BME280;70452;39.386;-3.210;2023-08-21T05:38:36;94600.50;;;23.88;40.84
80988;BME280;70452;39.386;-3.210;2023-08-21T05:41:02;94605.25;;;23.87;40.91
80988;BME280;70452;39.386;-3.210;2023-08-21T05:43:27;94612.28;;;23.81;41.26
80988;BME280;70452;39.386;-3.210;2023-08-21T05:45:53;94623.13;;;23.86;41.39
80988;BME280;70452;39.386;-3.210;2023-08-21T05:48:18;94618.19;;;23.95;41.22
80988;BME280;70452;39.386;-3.210;2023-08-21T05:50:43;94621.50;;;24.17;40.90
80988;BME280;70452;39.386;-3.210;2023-08-21T05:53:09;94619.13;;;24.51;40.33
80988;BME280;70452;39.386;-3.210;2023-08-21T05:55:36;94617.88;;;24.64;39.93
80988;BME280;70452;39.386;-3.210;2023-08-21T05:58:02;94619.59;;;25.08;39.10
80988;BME280;70452;39.386;-3.210;2023-08-21T06:00:28;94621.94;;;24.86;39.84
80988;BME280;70452;39.386;-3.210;2023-08-21T06:02:53;94618.94;;;24.95;39.80
80988;BME280;70452;39.386;-3.210;2023-08-21T06:05:19;94619.88;;;25.38;38.98
80988;BME280;70452;39.386;-3.210;2023-08-21T06:07:44;94630.38;;;25.25;39.17
80988;BME280;70452;39.386;-3.210;2023-08-21T06:10:10;94629.88;;;25.04;39.66
80988;BME280;70452;39.386;-3.210;2023-08-21T06:12:41;94626.78;;;25.44;38.81
80988;BME280;70452;39.386;-3.210;2023-08-21T06:15:07;94629.25;;;25.30;39.30
80988;BME280;70452;39.386;-3.210;2023-08-21T06:17:34;94630.81;;;25.27;39.43
80988;BME280;70452;39.386;-3.210;2023-08-21T06:20:00;94629.03;;;25.58;39.17
80988;BME280;70452;39.386;-3.210;2023-08-21T06:22:25;94627.47;;;25.61;39.23
80988;BME280;70452;39.386;-3.210;2023-08-21T06:24:51;94621.66;;;25.70;39.42
80988;BME280;70452;39.386;-3.210;2023-08-21T06:27:17;94632.03;;;25.69;40.25
80988;BME280;70452;39.386;-3.210;2023-08-21T06:29:43;94634.63;;;25.58;40.43
80988;BME280;70452;39.386;-3.210;2023-08-21T06:32:08;94642.38;;;25.69;40.53
80988;BME280;70452;39.386;-3.210;2023-08-21T06:34:34;94627.16;;;26.32;39.52
80988;BME280;70452;39.386;-3.210;2023-08-21T06:36:59;94642.38;;;26.34;39.67
80988;BME280;70452;39.386;-3.210;2023-08-21T06:39:25;94636.22;;;25.59;41.80
80988;BME280;70452;39.386;-3.210;2023-08-21T06:41:51;94648.28;;;25.87;42.14
80988;BME280;70452;39.386;-3.210;2023-08-21T06:44:17;94639.50;;;26.08;42.04
80988;BME280;70452;39.386;-3.210;2023-08-21T06:46:42;94639.66;;;26.15;41.88
80988;BME280;70452;39.386;-3.210;2023-08-21T06:49:08;94644.63;;;26.52;41.16
80988;BME280;70452;39.386;-3.210;2023-08-21T06:51:34;94644.56;;;26.98;39.82
80988;BME280;70452;39.386;-3.210;2023-08-21T06:53:59;94640.34;;;26.08;41.32
80988;BME280;70452;39.386;-3.210;2023-08-21T06:56:25;94635.34;;;26.44;40.56
80988;BME280;70452;39.386;-3.210;2023-08-21T06:58:50;94644.69;;;26.55;39.94
80988;BME280;70452;39.386;-3.210;2023-08-21T07:01:21;94651.00;;;26.26;40.91
80988;BME280;70452;39.386;-3.210;2023-08-21T07:03:54;94642.47;;;26.42;40.53
80988;BME280;70452;39.386;-3.210;2023-08-21T07:06:20;94648.09;;;26.95;39.08
80988;BME280;70452;39.386;-3.210;2023-08-21T07:08:46;94652.66;;;26.80;39.59
80988;BME280;70452;39.386;-3.210;2023-08-21T07:11:12;94648.38;;;26.86;39.31
80988;BME280;70452;39.386;-3.210;2023-08-21T07:13:38;94648.09;;;27.22;38.67
80988;BME280;70452;39.386;-3.210;2023-08-21T07:16:04;94648.75;;;27.11;38.91
80988;BME280;70452;39.386;-3.210;2023-08-21T07:18:34;94658.44;;;26.91;39.92
80988;BME280;70452;39.386;-3.210;2023-08-21T07:21:01;94657.28;;;26.95;39.84
80988;BME280;70452;39.386;-3.210;2023-08-21T07:23:27;94656.59;;;27.29;39.27
80988;BME280;70452;39.386;-3.210;2023-08-21T07:25:54;94666.91;;;27.55;39.37
80988;BME280;70452;39.386;-3.210;2023-08-21T07:28:19;94641.25;;;27.19;39.92
80988;BME280;70452;39.386;-3.210;2023-08-21T07:30:44;94648.97;;;27.60;39.22
80988;BME280;70452;39.386;-3.210;2023-08-21T07:33:10;94650.53;;;28.29;38.15
80988;BME280;70452;39.386;-3.210;2023-08-21T07:35:36;94653.22;;;28.18;38.49
80988;BME280;70452;39.386;-3.210;2023-08-21T07:38:02;94651.84;;;28.01;39.20
80988;BME280;70452;39.386;-3.210;2023-08-21T07:40:27;94646.00;;;27.79;40.20
80988;BME280;70452;39.386;-3.210;2023-08-21T07:42:53;94651.91;;;28.08;39.71
80988;BME280;70452;39.386;-3.210;2023-08-21T07:45:19;94650.66;;;28.47;38.97
80988;BME280;70452;39.386;-3.210;2023-08-21T07:47:44;94649.88;;;28.46;39.31
80988;BME280;70452;39.386;-3.210;2023-08-21T07:50:10;94645.09;;;28.50;39.33
80988;BME280;70452;39.386;-3.210;2023-08-21T07:52:37;94647.78;;;28.84;38.28
80988;BME280;70452;39.386;-3.210;2023-08-21T07:55:03;94643.91;;;29.07;38.12
80988;BME280;70452;39.386;-3.210;2023-08-21T07:57:29;94644.72;;;29.07;37.99
80988;BME280;70452;39.386;-3.210;2023-08-21T07:59:56;94651.88;;;29.01;38.31
80988;BME280;70452;39.386;-3.210;2023-08-21T08:02:22;94646.84;;;29.25;37.95
80988;BME280;70452;39.386;-3.210;2023-08-21T08:04:48;94657.00;;;29.54;37.46
80988;BME280;70452;39.386;-3.210;2023-08-21T08:07:13;94646.47;;;29.30;37.75
80988;BME280;70452;39.386;-3.210;2023-08-21T08:09:39;94645.53;;;29.08;38.88
80988;BME280;70452;39.386;-3.210;2023-08-21T08:12:05;94652.78;;;29.12;38.61
80988;BME280;70452;39.386;-3.210;2023-08-21T08:14:31;94649.19;;;30.32;36.35
80988;BME280;70452;39.386;-3.210;2023-08-21T08:16:57;94655.69;;;30.76;35.75
80988;BME280;70452;39.386;-3.210;2023-08-21T08:19:22;94654.88;;;30.72;35.71
80988;BME280;70452;39.386;-3.210;2023-08-21T08:21:48;94660.84;;;30.23;36.71
80988;BME280;70452;39.386;-3.210;2023-08-21T08:24:13;94661.31;;;30.76;35.84
80988;BME280;70452;39.386;-3.210;2023-08-21T08:26:39;94664.03;;;30.11;36.75
80988;BME280;70452;39.386;-3.210;2023-08-21T08:29:07;94654.38;;;30.05;36.90
80988;BME280;70452;39.386;-3.210;2023-08-21T08:31:32;94659.25;;;30.29;36.65
80988;BME280;70452;39.386;-3.210;2023-08-21T08:33:58;94662.91;;;30.62;35.79
80988;BME280;70452;39.386;-3.210;2023-08-21T08:36:24;94659.69;;;30.50;35.25
80988;BME280;70452;39.386;-3.210;2023-08-21T08:38:50;94659.31;;;31.01;34.51
80988;BME280;70452;39.386;-3.210;2023-08-21T08:41:33;94664.41;;;31.57;33.05
80988;BME280;70452;39.386;-3.210;2023-08-21T08:43:59;94668.81;;;31.47;33.37
80988;BME280;70452;39.386;-3.210;2023-08-21T08:46:28;94665.91;;;31.80;32.61
80988;BME280;70452;39.386;-3.210;2023-08-21T08:48:56;94668.06;;;31.50;33.08
80988;BME280;70452;39.386;-3.210;2023-08-21T08:51:24;94666.75;;;31.73;32.39
80988;BME280;70452;39.386;-3.210;2023-08-21T08:53:50;94657.97;;;31.53;32.58
80988;BME280;70452;39.386;-3.210;2023-08-21T08:56:16;94666.47;;;32.34;31.48
80988;BME280;70452;39.386;-3.210;2023-08-21T08:58:41;94668.91;;;32.25;31.21
80988;BME280;70452;39.386;-3.210;2023-08-21T09:01:09;94666.09;;;32.25;30.85
80988;BME280;70452;39.386;-3.210;2023-08-21T09:03:38;94669.63;;;32.40;30.98
80988;BME280;70452;39.386;-3.210;2023-08-21T09:06:03;94667.81;;;32.08;31.87
80988;BME280;70452;39.386;-3.210;2023-08-21T09:08:29;94672.69;;;31.96;31.88
80988;BME280;70452;39.386;-3.210;2023-08-21T09:11:01;94672.72;;;32.56;30.79
80988;BME280;70452;39.386;-3.210;2023-08-21T09:13:27;94672.59;;;32.78;30.56
80988;BME280;70452;39.386;-3.210;2023-08-21T09:15:54;94667.72;;;32.26;31.30
80988;BME280;70452;39.386;-3.210;2023-08-21T09:18:21;94667.50;;;32.62;30.49
80988;BME280;70452;39.386;-3.210;2023-08-21T09:20:46;94667.13;;;32.52;30.89
80988;BME280;70452;39.386;-3.210;2023-08-21T09:23:17;94667.09;;;32.63;30.75
80988;BME280;70452;39.386;-3.210;2023-08-21T09:25:47;94666.25;;;32.63;31.08
80988;BME280;70452;39.386;-3.210;2023-08-21T09:28:14;94662.13;;;33.23;30.45
80988;BME280;70452;39.386;-3.210;2023-08-21T09:30:53;94669.69;;;33.34;30.13
80988;BME280;70452;39.386;-3.210;2023-08-21T09:33:23;94654.47;;;33.58;29.40
80988;BME280;70452;39.386;-3.210;2023-08-21T09:35:51;94656.13;;;33.90;28.35
80988;BME280;70452;39.386;-3.210;2023-08-21T09:38:18;94658.72;;;33.77;29.05
80988;BME280;70452;39.386;-3.210;2023-08-21T09:40:51;94660.34;;;33.78;29.15
80988;BME280;70452;39.386;-3.210;2023-08-21T09:43:17;94662.38;;;34.05;28.44
80988;BME280;70452;39.386;-3.210;2023-08-21T09:45:46;94668.75;;;34.13;28.29
80988;BME280;70452;39.386;-3.210;2023-08-21T09:48:14;94665.75;;;34.27;27.71
80988;BME280;70452;39.386;-3.210;2023-08-21T09:50:43;94661.78;;;34.48;26.58
80988;BME280;70452;39.386;-3.210;2023-08-21T09:53:09;94661.38;;;34.77;26.27
80988;BME280;70452;39.386;-3.210;2023-08-21T09:55:35;94657.75;;;34.49;26.99
80988;BME280;70452;39.386;-3.210;2023-08-21T09:58:02;94654.56;;;34.20;25.68
80988;BME280;70452;39.386;-3.210;2023-08-21T10:00:36;94658.78;;;34.35;26.84
80988;BME280;70452;39.386;-3.210;2023-08-21T10:03:07;94656.13;;;34.48;26.19
80988;BME280;70452;39.386;-3.210;2023-08-21T10:05:37;94661.00;;;34.21;26.96
80988;BME280;70452;39.386;-3.210;2023-08-21T10:08:05;94653.22;;;33.97;27.08
80988;BME280;70452;39.386;-3.210;2023-08-21T10:10:33;94647.22;;;34.50;26.31
80988;BME280;70452;39.386;-3.210;2023-08-21T10:12:59;94647.53;;;34.55;26.53
80988;BME280;70452;39.386;-3.210;2023-08-21T10:15:27;94650.22;;;34.39;27.21
80988;BME280;70452;39.386;-3.210;2023-08-21T10:17:53;94650.44;;;34.52;26.61
80988;BME280;70452;39.386;-3.210;2023-08-21T10:20:24;94648.50;;;34.18;26.67
80988;BME280;70452;39.386;-3.210;2023-08-21T10:22:53;94655.47;;;34.41;25.85
80988;BME280;70452;39.386;-3.210;2023-08-21T10:25:23;94647.81;;;34.65;26.17
80988;BME280;70452;39.386;-3.210;2023-08-21T10:27:55;94649.88;;;34.88;25.40
80988;BME280;70452;39.386;-3.210;2023-08-21T10:30:23;94644.72;;;34.55;26.12
80988;BME280;70452;39.386;-3.210;2023-08-21T10:32:51;94654.88;;;34.80;26.19
80988;BME280;70452;39.386;-3.210;2023-08-21T10:35:25;94642.84;;;35.20;25.54
80988;BME280;70452;39.386;-3.210;2023-08-21T10:38:16;94654.81;;;35.51;24.79
80988;BME280;70452;39.386;-3.210;2023-08-21T10:41:08;94643.66;;;35.20;25.65
80988;BME280;70452;39.386;-3.210;2023-08-21T10:43:40;94640.41;;;35.22;25.83
80988;BME280;70452;39.386;-3.210;2023-08-21T10:46:06;94647.91;;;35.08;25.70
80988;BME280;70452;39.386;-3.210;2023-08-21T10:48:32;94638.56;;;35.11;25.51
80988;BME280;70452;39.386;-3.210;2023-08-21T10:51:01;94643.59;;;35.24;25.07
80988;BME280;70452;39.386;-3.210;2023-08-21T10:53:33;94635.22;;;35.60;24.58
80988;BME280;70452;39.386;-3.210;2023-08-21T10:56:06;94635.00;;;35.71;24.31
80988;BME280;70452;39.386;-3.210;2023-08-21T10:58:43;94634.75;;;35.22;24.45
80988;BME280;70452;39.386;-3.210;2023-08-21T11:01:12;94623.97;;;35.37;24.16
80988;BME280;70452;39.386;-3.210;2023-08-21T11:03:39;94616.28;;;35.57;23.30
80988;BME280;70452;39.386;-3.210;2023-08-21T11:06:07;94619.59;;;36.12;22.26
80988;BME280;70452;39.386;-3.210;2023-08-21T11:08:33;94628.88;;;36.13;22.17
80988;BME280;70452;39.386;-3.210;2023-08-21T11:11:01;94626.56;;;36.44;21.01
80988;BME280;70452;39.386;-3.210;2023-08-21T11:13:27;94611.47;;;36.31;20.52
80988;BME280;70452;39.386;-3.210;2023-08-21T11:16:02;94610.91;;;36.19;20.03
80988;BME280;70452;39.386;-3.210;2023-08-21T11:18:36;94605.31;;;36.52;19.09
80988;BME280;70452;39.386;-3.210;2023-08-21T11:21:07;94608.56;;;36.51;19.64
80988;BME280;70452;39.386;-3.210;2023-08-21T11:23:40;94606.84;;;36.73;19.26
80988;BME280;70452;39.386;-3.210;2023-08-21T11:26:09;94609.28;;;36.55;19.67
80988;BME280;70452;39.386;-3.210;2023-08-21T11:28:35;94601.72;;;36.48;18.63
80988;BME280;70452;39.386;-3.210;2023-08-21T11:31:01;94602.94;;;36.84;17.98
80988;BME280;70452;39.386;-3.210;2023-08-21T11:33:32;94592.91;;;36.95;18.21
80988;BME280;70452;39.386;-3.210;2023-08-21T11:35:59;94588.78;;;37.13;17.92
80988;BME280;70452;39.386;-3.210;2023-08-21T11:38:26;94585.50;;;36.98;17.98
80988;BME280;70452;39.386;-3.210;2023-08-21T11:41:00;94592.94;;;37.25;17.78
80988;BME280;70452;39.386;-3.210;2023-08-21T11:46:02;94585.84;;;37.16;17.28
80988;BME280;70452;39.386;-3.210;2023-08-21T11:48:33;94572.47;;;37.17;17.34
80988;BME280;70452;39.386;-3.210;2023-08-21T11:50:58;94569.97;;;37.78;16.56
80988;BME280;70452;39.386;-3.210;2023-08-21T11:53:35;94574.41;;;37.92;16.25
80988;BME280;70452;39.386;-3.210;2023-08-21T11:56:01;94567.16;;;38.03;15.25
80988;BME280;70452;39.386;-3.210;2023-08-21T11:58:27;94559.38;;;37.78;15.38
80988;BME280;70452;39.386;-3.210;2023-08-21T12:00:54;94558.16;;;37.92;15.43
80988;BME280;70452;39.386;-3.210;2023-08-21T12:03:19;94568.28;;;38.06;15.25
80988;BME280;70452;39.386;-3.210;2023-08-21T12:05:45;94561.00;;;37.79;15.15
80988;BME280;70452;39.386;-3.210;2023-08-21T12:08:12;94571.81;;;37.84;14.23
80988;BME280;70452;39.386;-3.210;2023-08-21T12:10:37;94564.91;;;37.27;14.33
80988;BME280;70452;39.386;-3.210;2023-08-21T12:13:03;94558.25;;;37.76;15.01
80988;BME280;70452;39.386;-3.210;2023-08-21T12:15:28;94552.66;;;37.72;14.88
80988;BME280;70452;39.386;-3.210;2023-08-21T12:17:54;94551.28;;;37.64;14.66
80988;BME280;70452;39.386;-3.210;2023-08-21T12:20:20;94542.81;;;37.89;14.29
80988;BME280;70452;39.386;-3.210;2023-08-21T12:22:46;94547.78;;;37.72;14.42
80988;BME280;70452;39.386;-3.210;2023-08-21T12:25:13;94541.69;;;38.64;13.57
80988;BME280;70452;39.386;-3.210;2023-08-21T12:27:38;94540.84;;;38.89;13.37
80988;BME280;70452;39.386;-3.210;2023-08-21T12:30:05;94546.81;;;38.43;14.09
80988;BME280;70452;39.386;-3.210;2023-08-21T12:32:34;94543.94;;;39.17;13.07
80988;BME280;70452;39.386;-3.210;2023-08-21T12:35:00;94527.97;;;39.19;12.92
80988;BME280;70452;39.386;-3.210;2023-08-21T12:37:25;94536.69;;;39.60;12.84
80988;BME280;70452;39.386;-3.210;2023-08-21T12:39:51;94539.13;;;39.93;12.79
80988;BME280;70452;39.386;-3.210;2023-08-21T12:42:16;94535.50;;;40.33;11.91
80988;BME280;70452;39.386;-3.210;2023-08-21T12:44:43;94528.16;;;40.63;11.67
80988;BME280;70452;39.386;-3.210;2023-08-21T12:47:08;94521.28;;;41.01;11.30
80988;BME280;70452;39.386;-3.210;2023-08-21T12:49:34;94523.78;;;40.81;11.47
80988;BME280;70452;39.386;-3.210;2023-08-21T12:52:02;94529.44;;;40.62;11.47
80988;BME280;70452;39.386;-3.210;2023-08-21T12:54:32;94520.56;;;40.20;12.00